sensor_id;sensor_type;location;lat;lon;timestamp;P1;durP1;ratioP1;P2;durP2;ratioP2
48534;SDS011;34323;52.022;5.686;2024-03-22T00:00:16;53.20;;;26.20;;
48534;SDS011;34323;52.022;5.686;2024-03-22T00:02:42;52.70;;;25.65;;
48534;SDS011;34323;52.022;5.686;2024-03-22T00:05:08;53.22;;;26.42;;
48534;SDS011;34323;52.022;5.686;2024-03-22T00:07:33;58.20;;;28.35;;
48534;SDS011;34323;52.022;5.686;2024-03-22T00:09:59;50.15;;;25.48;;
48534;SDS011;34323;52.022;5.686;2024-03-22T00:12:25;51.47;;;26.38;;
48534;SDS011;34323;52.022;5.686;2024-03-22T00:14:51;60.85;;;28.42;;
48534;SDS011;34323;52.022;5.686;2024-03-22T00:17:19;59.53;;;26.88;;
48534;SDS011;34323;52.022;5.686;2024-03-22T00:19:45;56.35;;;27.20;;
48534;SDS011;34323;52.022;5.686;2024-03-22T00:22:11;53.63;;;25.80;;
48534;SDS011;34323;52.022;5.686;2024-03-22T00:24:37;48.25;;;25.58;;
48534;SDS011;34323;52.022;5.686;2024-03-22T00:27:03;49.85;;;25.63;;
48534;SDS011;34323;52.022;5.686;2024-03-22T00:29:29;54.78;;;26.90;;
48534;SDS011;34323;52.022;5.686;2024-03-22T00:31:55;61.00;;;27.23;;
48534;SDS011;34323;52.022;5.686;2024-03-22T00:34:20;55.25;;;26.13;;
48534;SDS011;34323;52.022;5.686;2024-03-22T00:36:46;55.72;;;28.30;;
48534;SDS011;34323;52.022;5.686;2024-03-22T00:39:12;63.05;;;27.35;;
48534;SDS011;34323;52.022;5.686;2024-03-22T00:41:38;59.92;;;28.17;;
48534;SDS011;34323;52.022;5.686;2024-03-22T00:44:04;56.50;;;28.40;;
48534;SDS011;34323;52.022;5.686;2024-03-22T00:46:30;61.25;;;28.42;;
48534;SDS011;34323;52.022;5.686;2024-03-22T00:48:56;61.83;;;28.48;;
48534;SDS011;34323;52.022;5.686;2024-03-22T00:51:23;56.17;;;26.40;;
48534;SDS011;34323;52.022;5.686;2024-03-22T00:53:50;69.38;;;29.25;;
48534;SDS011;34323;52.022;5.686;2024-03-22T00:56:16;60.38;;;28.65;;
48534;SDS011;34323;52.022;5.686;2024-03-22T00:58:42;64.80;;;30.20;;
48534;SDS011;34323;52.022;5.686;2024-03-22T01:01:08;58.78;;;28.45;;
48534;SDS011;34323;52.022;5.686;2024-03-22T01:03:34;60.35;;;28.05;;
48534;SDS011;34323;52.022;5.686;2024-03-22T01:05:59;58.28;;;28.48;;
48534;SDS011;34323;52.022;5.686;2024-03-22T01:08:25;57.97;;;27.38;;
48534;SDS011;34323;52.022;5.686;2024-03-22T01:10:51;60.40;;;29.92;;
48534;SDS011;34323;52.022;5.686;2024-03-22T01:13:17;56.90;;;27.60;;
48534;SDS011;34323;52.022;5.686;2024-03-22T01:15:43;72.07;;;31.90;;
48534;SDS011;34323;52.022;5.686;2024-03-22T01:18:09;69.57;;;29.75;;
48534;SDS011;34323;52.022;5.686;2024-03-22T01:20:35;67.93;;;30.50;;
48534;SDS011;34323;52.022;5.686;2024-03-22T01:23:00;66.43;;;29.67;;
48534;SDS011;34323;52.022;5.686;2024-03-22T01:25:27;58.38;;;28.55;;
48534;SDS011;34323;52.022;5.686;2024-03-22T01:27:53;69.20;;;29.63;;
48534;SDS011;34323;52.022;5.686;2024-03-22T01:30:20;62.17;;;29.48;;
48534;SDS011;34323;52.022;5.686;2024-03-22T01:32:46;67.20;;;30.13;;
48534;SDS011;34323;52.022;5.686;2024-03-22T01:35:12;67.57;;;29.70;;
48534;SDS011;34323;52.022;5.686;2024-03-22T01:37:38;64.22;;;29.02;;
48534;SDS011;34323;52.022;5.686;2024-03-22T01:40:03;66.47;;;29.88;;
48534;SDS011;34323;52.022;5.686;2024-03-22T01:42:30;63.05;;;27.52;;
48534;SDS011;34323;52.022;5.686;2024-03-22T01:44:56;69.97;;;30.08;;
48534;SDS011;34323;52.022;5.686;2024-03-22T01:47:22;61.92;;;29.38;;
48534;SDS011;34323;52.022;5.686;2024-03-22T01:49:49;64.40;;;29.73;;
48534;SDS011;34323;52.022;5.686;2024-03-22T01:52:18;63.83;;;29.60;;
48534;SDS011;34323;52.022;5.686;2024-03-22T01:54:44;64.57;;;28.95;;
48534;SDS011;34323;52.022;5.686;2024-03-22T01:57:10;59.45;;;28.45;;
48534;SDS011;34323;52.022;5.686;2024-03-22T01:59:36;60.53;;;30.63;;
48534;SDS011;34323;52.022;5.686;2024-03-22T02:02:02;60.28;;;30.60;;
48534;SDS011;34323;52.022;5.686;2024-03-22T02:04:28;64.20;;;30.38;;
48534;SDS011;34323;52.022;5.686;2024-03-22T02:06:54;65.18;;;30.00;;
48534;SDS011;34323;52.022;5.686;2024-03-22T02:09:20;55.95;;;28.05;;
48534;SDS011;34323;52.022;5.686;2024-03-22T02:11:49;62.97;;;30.20;;
48534;SDS011;34323;52.022;5.686;2024-03-22T02:14:15;62.70;;;30.85;;
48534;SDS011;34323;52.022;5.686;2024-03-22T02:16:40;62.03;;;28.02;;
48534;SDS011;34323;52.022;5.686;2024-03-22T02:19:07;56.50;;;26.48;;
48534;SDS011;34323;52.022;5.686;2024-03-22T02:21:33;63.22;;;28.42;;
48534;SDS011;34323;52.022;5.686;2024-03-22T02:23:59;59.83;;;27.38;;
48534;SDS011;34323;52.022;5.686;2024-03-22T02:26:25;55.97;;;28.80;;
48534;SDS011;34323;52.022;5.686;2024-03-22T02:28:51;57.35;;;28.85;;
48534;SDS011;34323;52.022;5.686;2024-03-22T02:31:17;56.63;;;28.52;;
48534;SDS011;34323;52.022;5.686;2024-03-22T02:33:45;54.10;;;26.80;;
48534;SDS011;34323;52.022;5.686;2024-03-22T02:36:10;59.75;;;28.52;;
48534;SDS011;34323;52.022;5.686;2024-03-22T02:38:36;58.63;;;27.65;;
48534;SDS011;34323;52.022;5.686;2024-03-22T02:41:02;56.47;;;27.48;;
48534;SDS011;34323;52.022;5.686;2024-03-22T02:43:28;52.10;;;26.45;;
48534;SDS011;34323;52.022;5.686;2024-03-22T02:45:54;57.60;;;28.45;;
48534;SDS011;34323;52.022;5.686;2024-03-22T02:48:20;58.83;;;27.42;;
48534;SDS011;34323;52.022;5.686;2024-03-22T02:50:46;52.58;;;27.70;;
48534;SDS011;34323;52.022;5.686;2024-03-22T02:53:11;54.60;;;27.55;;
48534;SDS011;34323;52.022;5.686;2024-03-22T02:55:40;54.13;;;27.92;;
48534;SDS011;34323;52.022;5.686;2024-03-22T02:58:07;48.72;;;25.10;;
48534;SDS011;34323;52.022;5.686;2024-03-22T03:00:36;47.83;;;25.90;;
48534;SDS011;34323;52.022;5.686;2024-03-22T03:03:04;50.22;;;26.52;;
48534;SDS011;34323;52.022;5.686;2024-03-22T03:05:30;51.67;;;25.92;;
48534;SDS011;34323;52.022;5.686;2024-03-22T03:07:56;52.60;;;26.63;;
48534;SDS011;34323;52.022;5.686;2024-03-22T03:10:22;52.75;;;25.58;;
48534;SDS011;34323;52.022;5.686;2024-03-22T03:12:48;48.45;;;26.17;;
48534;SDS011;34323;52.022;5.686;2024-03-22T03:15:15;54.15;;;28.67;;
48534;SDS011;34323;52.022;5.686;2024-03-22T03:17:41;54.80;;;27.23;;
48534;SDS011;34323;52.022;5.686;2024-03-22T03:20:07;51.13;;;26.15;;
48534;SDS011;34323;52.022;5.686;2024-03-22T03:22:35;55.55;;;27.35;;
48534;SDS011;34323;52.022;5.686;2024-03-22T03:25:03;46.60;;;25.63;;
48534;SDS011;34323;52.022;5.686;2024-03-22T03:27:29;45.30;;;24.80;;
48534;SDS011;34323;52.022;5.686;2024-03-22T03:29:55;48.65;;;25.92;;
48534;SDS011;34323;52.022;5.686;2024-03-22T03:32:21;50.63;;;28.08;;
48534;SDS011;34323;52.022;5.686;2024-03-22T03:34:47;47.80;;;24.75;;
48534;SDS011;34323;52.022;5.686;2024-03-22T03:37:13;50.60;;;24.75;;
48534;SDS011;34323;52.022;5.686;2024-03-22T03:39:39;46.47;;;25.95;;
48534;SDS011;34323;52.022;5.686;2024-03-22T03:42:05;50.67;;;25.50;;
48534;SDS011;34323;52.022;5.686;2024-03-22T03:44:31;50.08;;;26.88;;
48534;SDS011;34323;52.022;5.686;2024-03-22T03:46:57;43.33;;;23.58;;
48534;SDS011;34323;52.022;5.686;2024-03-22T03:49:23;50.03;;;27.23;;
48534;SDS011;34323;52.022;5.686;2024-03-22T03:51:48;50.45;;;26.92;;
48534;SDS011;34323;52.022;5.686;2024-03-22T03:54:14;48.28;;;25.90;;
48534;SDS011;34323;52.022;5.686;2024-03-22T03:56:40;58.53;;;27.13;;
48534;SDS011;34323;52.022;5.686;2024-03-22T03:59:06;49.83;;;26.00;;
48534;SDS011;34323;52.022;5.686;2024-03-22T04:01:32;48.58;;;24.88;;
48534;SDS011;34323;52.022;5.686;2024-03-22T04:03:58;52.97;;;26.27;;
48534;SDS011;34323;52.022;5.686;2024-03-22T04:06:24;49.58;;;25.98;;
48534;SDS011;34323;52.022;5.686;2024-03-22T04:08:50;51.95;;;26.23;;
48534;SDS011;34323;52.022;5.686;2024-03-22T04:11:15;52.30;;;26.13;;
48534;SDS011;34323;52.022;5.686;2024-03-22T04:13:41;52.55;;;27.20;;
48534;SDS011;34323;52.022;5.686;2024-03-22T04:16:07;54.70;;;28.45;;
48534;SDS011;34323;52.022;5.686;2024-03-22T04:18:33;48.05;;;25.88;;
48534;SDS011;34323;52.022;5.686;2024-03-22T04:20:59;55.50;;;26.48;;
48534;SDS011;34323;52.022;5.686;2024-03-22T04:23:25;51.75;;;26.38;;
48534;SDS011;34323;52.022;5.686;2024-03-22T04:25:58;55.67;;;28.73;;
48534;SDS011;34323;52.022;5.686;2024-03-22T04:28:25;56.40;;;27.58;;
48534;SDS011;34323;52.022;5.686;2024-03-22T04:31:01;57.58;;;27.33;;
48534;SDS011;34323;52.022;5.686;2024-03-22T04:33:31;55.47;;;27.20;;
48534;SDS011;34323;52.022;5.686;2024-03-22T04:35:58;49.90;;;25.27;;
48534;SDS011;34323;52.022;5.686;2024-03-22T04:38:27;49.70;;;26.83;;
48534;SDS011;34323;52.022;5.686;2024-03-22T04:40:54;52.30;;;27.60;;
48534;SDS011;34323;52.022;5.686;2024-03-22T04:43:23;54.40;;;26.85;;
48534;SDS011;34323;52.022;5.686;2024-03-22T04:45:49;54.92;;;28.20;;
48534;SDS011;34323;52.022;5.686;2024-03-22T04:48:22;47.08;;;26.27;;
48534;SDS011;34323;52.022;5.686;2024-03-22T04:50:49;57.08;;;28.17;;
48534;SDS011;34323;52.022;5.686;2024-03-22T04:53:16;59.90;;;28.13;;
48534;SDS011;34323;52.022;5.686;2024-03-22T04:55:43;54.42;;;27.38;;
48534;SDS011;34323;52.022;5.686;2024-03-22T04:58:18;53.03;;;26.70;;
48534;SDS011;34323;52.022;5.686;2024-03-22T05:00:46;49.15;;;27.00;;
48534;SDS011;34323;52.022;5.686;2024-03-22T05:03:20;51.95;;;28.33;;
48534;SDS011;34323;52.022;5.686;2024-03-22T05:05:46;50.38;;;26.27;;
48534;SDS011;34323;52.022;5.686;2024-03-22T05:08:12;50.90;;;26.48;;
48534;SDS011;34323;52.022;5.686;2024-03-22T05:10:38;55.58;;;29.67;;
48534;SDS011;34323;52.022;5.686;2024-03-22T05:13:04;61.80;;;30.38;;
48534;SDS011;34323;52.022;5.686;2024-03-22T05:15:29;57.53;;;27.60;;
48534;SDS011;34323;52.022;5.686;2024-03-22T05:17:57;50.22;;;26.75;;
48534;SDS011;34323;52.022;5.686;2024-03-22T05:20:23;49.45;;;26.30;;
48534;SDS011;34323;52.022;5.686;2024-03-22T05:22:49;48.58;;;25.45;;
48534;SDS011;34323;52.022;5.686;2024-03-22T05:25:15;48.85;;;23.63;;
48534;SDS011;34323;52.022;5.686;2024-03-22T05:27:41;44.97;;;25.63;;
48534;SDS011;34323;52.022;5.686;2024-03-22T05:30:11;50.90;;;26.08;;
48534;SDS011;34323;52.022;5.686;2024-03-22T05:32:38;48.25;;;25.30;;
48534;SDS011;34323;52.022;5.686;2024-03-22T05:35:05;51.55;;;24.75;;
48534;SDS011;34323;52.022;5.686;2024-03-22T05:37:32;45.65;;;25.17;;
48534;SDS011;34323;52.022;5.686;2024-03-22T05:39:59;41.80;;;24.30;;
48534;SDS011;34323;52.022;5.686;2024-03-22T05:42:25;44.08;;;24.10;;
48534;SDS011;34323;52.022;5.686;2024-03-22T05:44:51;43.42;;;22.80;;
48534;SDS011;34323;52.022;5.686;2024-03-22T05:47:18;41.40;;;23.67;;
48534;SDS011;34323;52.022;5.686;2024-03-22T05:49:44;46.70;;;24.63;;
48534;SDS011;34323;52.022;5.686;2024-03-22T05:52:10;44.95;;;25.60;;
48534;SDS011;34323;52.022;5.686;2024-03-22T05:54:37;43.80;;;23.98;;
48534;SDS011;34323;52.022;5.686;2024-03-22T05:57:03;46.05;;;24.95;;
48534;SDS011;34323;52.022;5.686;2024-03-22T05:59:30;41.88;;;22.90;;
48534;SDS011;34323;52.022;5.686;2024-03-22T06:01:56;45.92;;;23.02;;
48534;SDS011;34323;52.022;5.686;2024-03-22T06:04:22;40.35;;;21.92;;
48534;SDS011;34323;52.022;5.686;2024-03-22T06:06:48;41.72;;;22.15;;
48534;SDS011;34323;52.022;5.686;2024-03-22T06:09:15;43.30;;;22.98;;
48534;SDS011;34323;52.022;5.686;2024-03-22T06:11:49;45.45;;;22.25;;
48534;SDS011;34323;52.022;5.686;2024-03-22T06:14:15;44.45;;;21.67;;
48534;SDS011;34323;52.022;5.686;2024-03-22T06:16:41;49.17;;;22.70;;
48534;SDS011;34323;52.022;5.686;2024-03-22T06:19:07;41.05;;;21.42;;
48534;SDS011;34323;52.022;5.686;2024-03-22T06:21:32;57.60;;;22.88;;
48534;SDS011;34323;52.022;5.686;2024-03-22T06:23:58;42.75;;;22.83;;
48534;SDS011;34323;52.022;5.686;2024-03-22T06:26:24;41.55;;;21.90;;
48534;SDS011;34323;52.022;5.686;2024-03-22T06:28:50;39.15;;;21.80;;
48534;SDS011;34323;52.022;5.686;2024-03-22T06:31:15;38.90;;;21.40;;
48534;SDS011;34323;52.022;5.686;2024-03-22T06:33:42;43.05;;;22.77;;
48534;SDS011;34323;52.022;5.686;2024-03-22T06:36:08;44.40;;;21.98;;
48534;SDS011;34323;52.022;5.686;2024-03-22T06:38:34;39.38;;;21.13;;
48534;SDS011;34323;52.022;5.686;2024-03-22T06:41:00;40.28;;;21.33;;
48534;SDS011;34323;52.022;5.686;2024-03-22T06:43:26;41.10;;;22.05;;
48534;SDS011;34323;52.022;5.686;2024-03-22T06:45:51;37.33;;;21.05;;
48534;SDS011;34323;52.022;5.686;2024-03-22T06:48:17;37.03;;;20.90;;
48534;SDS011;34323;52.022;5.686;2024-03-22T06:50:43;35.40;;;20.00;;
48534;SDS011;34323;52.022;5.686;2024-03-22T06:53:09;41.58;;;20.58;;
48534;SDS011;34323;52.022;5.686;2024-03-22T06:55:35;37.45;;;21.98;;
48534;SDS011;34323;52.022;5.686;2024-03-22T06:58:01;45.17;;;21.77;;
48534;SDS011;34323;52.022;5.686;2024-03-22T07:00:27;41.20;;;22.27;;
48534;SDS011;34323;52.022;5.686;2024-03-22T07:02:53;34.38;;;19.85;;
48534;SDS011;34323;52.022;5.686;2024-03-22T07:05:20;40.05;;;20.77;;
48534;SDS011;34323;52.022;5.686;2024-03-22T07:07:47;33.92;;;20.05;;
48534;SDS011;34323;52.022;5.686;2024-03-22T07:10:15;35.95;;;19.05;;
48534;SDS011;34323;52.022;5.686;2024-03-22T07:12:41;39.13;;;21.63;;
48534;SDS011;34323;52.022;5.686;2024-03-22T07:15:06;40.33;;;20.40;;
48534;SDS011;34323;52.022;5.686;2024-03-22T07:17:33;35.63;;;21.33;;
48534;SDS011;34323;52.022;5.686;2024-03-22T07:19:59;36.75;;;20.50;;
48534;SDS011;34323;52.022;5.686;2024-03-22T07:22:25;33.47;;;20.67;;
48534;SDS011;34323;52.022;5.686;2024-03-22T07:24:51;39.30;;;22.02;;
48534;SDS011;34323;52.022;5.686;2024-03-22T07:27:16;39.58;;;20.15;;
48534;SDS011;34323;52.022;5.686;2024-03-22T07:29:43;37.03;;;21.08;;
48534;SDS011;34323;52.022;5.686;2024-03-22T07:32:09;34.92;;;18.05;;
48534;SDS011;34323;52.022;5.686;2024-03-22T07:34:35;32.42;;;18.33;;
48534;SDS011;34323;52.022;5.686;2024-03-22T07:37:01;32.22;;;16.85;;
48534;SDS011;34323;52.022;5.686;2024-03-22T07:39:29;30.27;;;19.73;;
48534;SDS011;34323;52.022;5.686;2024-03-22T07:41:55;40.50;;;21.33;;
48534;SDS011;34323;52.022;5.686;2024-03-22T07:44:20;33.58;;;19.63;;
48534;SDS011;34323;52.022;5.686;2024-03-22T07:46:49;33.97;;;18.48;;
48534;SDS011;34323;52.022;5.686;2024-03-22T07:49:15;34.67;;;18.23;;
48534;SDS011;34323;52.022;5.686;2024-03-22T07:51:41;32.00;;;18.17;;
48534;SDS011;34323;52.022;5.686;2024-03-22T07:54:06;43.50;;;20.00;;
48534;SDS011;34323;52.022;5.686;2024-03-22T07:56:32;39.47;;;19.98;;
48534;SDS011;34323;52.022;5.686;2024-03-22T07:58:58;38.70;;;18.98;;
48534;SDS011;34323;52.022;5.686;2024-03-22T08:01:25;36.33;;;18.85;;
48534;SDS011;34323;52.022;5.686;2024-03-22T08:03:51;30.52;;;18.25;;
48534;SDS011;34323;52.022;5.686;2024-03-22T08:06:17;39.38;;;19.85;;
48534;SDS011;34323;52.022;5.686;2024-03-22T08:08:43;41.42;;;20.20;;
48534;SDS011;34323;52.022;5.686;2024-03-22T08:11:09;35.20;;;20.38;;
48534;SDS011;34323;52.022;5.686;2024-03-22T08:13:35;38.28;;;19.75;;
48534;SDS011;34323;52.022;5.686;2024-03-22T08:16:01;38.45;;;21.33;;
48534;SDS011;34323;52.022;5.686;2024-03-22T08:18:27;40.72;;;20.20;;
48534;SDS011;34323;52.022;5.686;2024-03-22T08:20:53;43.58;;;20.23;;
48534;SDS011;34323;52.022;5.686;2024-03-22T08:23:18;34.78;;;19.27;;
48534;SDS011;34323;52.022;5.686;2024-03-22T08:25:45;33.03;;;18.95;;
48534;SDS011;34323;52.022;5.686;2024-03-22T08:28:11;33.25;;;19.67;;
48534;SDS011;34323;52.022;5.686;2024-03-22T08:30:44;36.72;;;19.88;;
48534;SDS011;34323;52.022;5.686;2024-03-22T08:33:10;35.67;;;19.58;;
48534;SDS011;34323;52.022;5.686;2024-03-22T08:35:36;34.10;;;19.05;;
48534;SDS011;34323;52.022;5.686;2024-03-22T08:38:03;44.90;;;20.65;;
48534;SDS011;34323;52.022;5.686;2024-03-22T08:40:30;43.53;;;21.88;;
48534;SDS011;34323;52.022;5.686;2024-03-22T08:42:56;34.60;;;21.10;;
48534;SDS011;34323;52.022;5.686;2024-03-22T08:45:22;40.08;;;19.85;;
48534;SDS011;34323;52.022;5.686;2024-03-22T08:47:48;46.42;;;22.52;;
48534;SDS011;34323;52.022;5.686;2024-03-22T08:50:13;41.20;;;22.20;;
48534;SDS011;34323;52.022;5.686;2024-03-22T08:52:39;42.97;;;23.02;;
48534;SDS011;34323;52.022;5.686;2024-03-22T08:55:05;43.53;;;22.48;;
48534;SDS011;34323;52.022;5.686;2024-03-22T08:57:32;43.22;;;21.58;;
48534;SDS011;34323;52.022;5.686;2024-03-22T08:59:58;41.33;;;22.40;;
48534;SDS011;34323;52.022;5.686;2024-03-22T09:02:24;46.78;;;23.45;;
48534;SDS011;34323;52.022;5.686;2024-03-22T09:04:50;40.20;;;21.52;;
48534;SDS011;34323;52.022;5.686;2024-03-22T09:07:16;51.42;;;23.25;;
48534;SDS011;34323;52.022;5.686;2024-03-22T09:09:42;46.88;;;22.65;;
48534;SDS011;34323;52.022;5.686;2024-03-22T09:12:08;37.80;;;21.52;;
48534;SDS011;34323;52.022;5.686;2024-03-22T09:14:34;45.00;;;23.33;;
48534;SDS011;34323;52.022;5.686;2024-03-22T09:17:00;42.20;;;22.33;;
48534;SDS011;34323;52.022;5.686;2024-03-22T09:19:26;41.88;;;22.58;;
48534;SDS011;34323;52.022;5.686;2024-03-22T09:21:51;51.58;;;23.02;;
48534;SDS011;34323;52.022;5.686;2024-03-22T09:24:17;41.08;;;22.75;;
48534;SDS011;34323;52.022;5.686;2024-03-22T09:26:43;43.58;;;21.65;;
48534;SDS011;34323;52.022;5.686;2024-03-22T09:29:09;38.30;;;21.48;;
48534;SDS011;34323;52.022;5.686;2024-03-22T09:31:35;44.17;;;22.13;;
48534;SDS011;34323;52.022;5.686;2024-03-22T09:34:00;49.28;;;22.92;;
48534;SDS011;34323;52.022;5.686;2024-03-22T09:36:26;46.38;;;23.92;;
48534;SDS011;34323;52.022;5.686;2024-03-22T09:38:52;41.70;;;21.58;;
48534;SDS011;34323;52.022;5.686;2024-03-22T09:41:23;46.58;;;24.48;;
48534;SDS011;34323;52.022;5.686;2024-03-22T09:43:51;43.33;;;22.38;;
48534;SDS011;34323;52.022;5.686;2024-03-22T09:46:18;43.38;;;21.95;;
48534;SDS011;34323;52.022;5.686;2024-03-22T09:48:47;44.33;;;24.15;;
48534;SDS011;34323;52.022;5.686;2024-03-22T09:51:17;44.72;;;23.92;;
48534;SDS011;34323;52.022;5.686;2024-03-22T09:53:48;52.97;;;24.40;;
48534;SDS011;34323;52.022;5.686;2024-03-22T09:56:15;48.72;;;25.20;;
48534;SDS011;34323;52.022;5.686;2024-03-22T09:58:44;44.45;;;23.40;;
48534;SDS011;34323;52.022;5.686;2024-03-22T10:01:10;55.67;;;25.67;;
48534;SDS011;34323;52.022;5.686;2024-03-22T10:03:37;44.95;;;25.20;;
48534;SDS011;34323;52.022;5.686;2024-03-22T10:06:03;46.00;;;23.02;;
48534;SDS011;34323;52.022;5.686;2024-03-22T10:08:29;40.78;;;22.13;;
48534;SDS011;34323;52.022;5.686;2024-03-22T10:10:55;39.33;;;22.42;;
48534;SDS011;34323;52.022;5.686;2024-03-22T10:13:22;43.70;;;22.02;;
48534;SDS011;34323;52.022;5.686;2024-03-22T10:15:48;37.47;;;20.50;;
48534;SDS011;34323;52.022;5.686;2024-03-22T10:18:14;33.60;;;19.05;;
48534;SDS011;34323;52.022;5.686;2024-03-22T10:20:40;38.92;;;19.60;;
48534;SDS011;34323;52.022;5.686;2024-03-22T10:23:07;36.50;;;18.38;;
48534;SDS011;34323;52.022;5.686;2024-03-22T10:25:33;35.80;;;19.15;;
48534;SDS011;34323;52.022;5.686;2024-03-22T10:28:01;31.55;;;16.98;;
48534;SDS011;34323;52.022;5.686;2024-03-22T10:30:27;29.05;;;16.95;;
48534;SDS011;34323;52.022;5.686;2024-03-22T10:32:53;34.83;;;17.35;;
48534;SDS011;34323;52.022;5.686;2024-03-22T10:35:19;24.05;;;14.32;;
48534;SDS011;34323;52.022;5.686;2024-03-22T10:37:46;27.00;;;14.75;;
48534;SDS011;34323;52.022;5.686;2024-03-22T10:40:12;28.90;;;14.75;;
48534;SDS011;34323;52.022;5.686;2024-03-22T10:42:39;25.80;;;14.10;;
48534;SDS011;34323;52.022;5.686;2024-03-22T10:45:06;24.67;;;15.70;;
48534;SDS011;34323;52.022;5.686;2024-03-22T10:47:34;19.88;;;12.57;;
48534;SDS011;34323;52.022;5.686;2024-03-22T10:52:34;23.50;;;12.88;;
48534;SDS011;34323;52.022;5.686;2024-03-22T10:57:31;26.58;;;13.80;;
48534;SDS011;34323;52.022;5.686;2024-03-22T11:00:03;21.70;;;12.30;;
48534;SDS011;34323;52.022;5.686;2024-03-22T11:02:38;24.27;;;13.35;;
48534;SDS011;34323;52.022;5.686;2024-03-22T11:05:08;19.70;;;11.90;;
48534;SDS011;34323;52.022;5.686;2024-03-22T11:07:44;19.65;;;11.38;;
48534;SDS011;34323;52.022;5.686;2024-03-22T11:10:13;19.88;;;12.93;;
48534;SDS011;34323;52.022;5.686;2024-03-22T11:12:40;22.25;;;12.77;;
48534;SDS011;34323;52.022;5.686;2024-03-22T11:15:07;19.65;;;12.32;;
48534;SDS011;34323;52.022;5.686;2024-03-22T11:17:37;21.42;;;11.75;;
48534;SDS011;34323;52.022;5.686;2024-03-22T11:20:03;19.42;;;10.55;;
48534;SDS011;34323;52.022;5.686;2024-03-22T11:22:31;18.92;;;10.68;;
48534;SDS011;34323;52.022;5.686;2024-03-22T11:24:57;17.77;;;10.43;;
48534;SDS011;34323;52.022;5.686;2024-03-22T11:27:23;17.08;;;10.75;;
48534;SDS011;34323;52.022;5.686;2024-03-22T11:29:49;22.42;;;11.77;;
48534;SDS011;34323;52.022;5.686;2024-03-22T11:32:16;19.98;;;10.77;;
48534;SDS011;34323;52.022;5.686;2024-03-22T11:34:43;20.30;;;12.88;;
48534;SDS011;34323;52.022;5.686;2024-03-22T11:37:09;18.60;;;11.63;;
48534;SDS011;34323;52.022;5.686;2024-03-22T11:39:38;19.02;;;10.63;;
48534;SDS011;34323;52.022;5.686;2024-03-22T11:42:05;23.75;;;11.88;;
48534;SDS011;34323;52.022;5.686;2024-03-22T11:44:33;16.95;;;10.82;;
48534;SDS011;34323;52.022;5.686;2024-03-22T11:47:05;19.17;;;11.18;;
48534;SDS011;34323;52.022;5.686;2024-03-22T11:49:32;16.48;;;10.65;;
48534;SDS011;34323;52.022;5.686;2024-03-22T11:52:00;14.38;;;9.45;;
48534;SDS011;34323;52.022;5.686;2024-03-22T11:54:26;15.15;;;8.77;;
48534;SDS011;34323;52.022;5.686;2024-03-22T11:56:54;16.15;;;10.27;;
48534;SDS011;34323;52.022;5.686;2024-03-22T11:59:21;13.77;;;9.57;;
48534;SDS011;34323;52.022;5.686;2024-03-22T12:01:47;16.48;;;9.20;;
48534;SDS011;34323;52.022;5.686;2024-03-22T12:04:13;14.50;;;9.15;;
48534;SDS011;34323;52.022;5.686;2024-03-22T12:06:42;15.82;;;8.60;;
48534;SDS011;34323;52.022;5.686;2024-03-22T12:09:12;14.30;;;9.57;;
48534;SDS011;34323;52.022;5.686;2024-03-22T12:11:39;12.77;;;8.65;;
48534;SDS011;34323;52.022;5.686;2024-03-22T12:14:05;14.93;;;9.48;;
48534;SDS011;34323;52.022;5.686;2024-03-22T12:16:31;14.50;;;9.02;;
48534;SDS011;34323;52.022;5.686;2024-03-22T12:18:57;11.90;;;8.38;;
48534;SDS011;34323;52.022;5.686;2024-03-22T12:21:23;12.52;;;8.38;;
48534;SDS011;34323;52.022;5.686;2024-03-22T12:23:50;17.98;;;10.60;;
48534;SDS011;34323;52.022;5.686;2024-03-22T12:26:15;13.48;;;9.15;;
48534;SDS011;34323;52.022;5.686;2024-03-22T12:28:42;16.90;;;9.68;;
48534;SDS011;34323;52.022;5.686;2024-03-22T12:31:08;14.93;;;9.57;;
48534;SDS011;34323;52.022;5.686;2024-03-22T12:33:35;16.13;;;10.48;;
48534;SDS011;34323;52.022;5.686;2024-03-22T12:36:02;15.90;;;10.57;;
48534;SDS011;34323;52.022;5.686;2024-03-22T12:38:29;14.50;;;9.27;;
48534;SDS011;34323;52.022;5.686;2024-03-22T12:40:55;14.00;;;9.02;;
48534;SDS011;34323;52.022;5.686;2024-03-22T12:43:21;13.85;;;9.23;;
48534;SDS011;34323;52.022;5.686;2024-03-22T12:45:47;14.55;;;8.75;;
48534;SDS011;34323;52.022;5.686;2024-03-22T12:48:13;20.58;;;11.88;;
48534;SDS011;34323;52.022;5.686;2024-03-22T12:50:39;20.83;;;11.40;;
48534;SDS011;34323;52.022;5.686;2024-03-22T12:53:05;15.10;;;9.60;;
48534;SDS011;34323;52.022;5.686;2024-03-22T12:55:31;17.48;;;8.75;;
48534;SDS011;34323;52.022;5.686;2024-03-22T12:57:57;10.27;;;6.30;;
48534;SDS011;34323;52.022;5.686;2024-03-22T13:00:23;10.52;;;5.63;;
48534;SDS011;34323;52.022;5.686;2024-03-22T13:02:50;9.93;;;5.75;;
48534;SDS011;34323;52.022;5.686;2024-03-22T13:05:16;8.57;;;4.85;;
48534;SDS011;34323;52.022;5.686;2024-03-22T13:07:42;6.20;;;4.30;;
48534;SDS011;34323;52.022;5.686;2024-03-22T13:10:08;8.35;;;4.20;;
48534;SDS011;34323;52.022;5.686;2024-03-22T13:12:34;6.75;;;4.47;;
48534;SDS011;34323;52.022;5.686;2024-03-22T13:15:00;8.43;;;4.57;;
48534;SDS011;34323;52.022;5.686;2024-03-22T13:17:26;9.27;;;4.43;;
48534;SDS011;34323;52.022;5.686;2024-03-22T13:19:52;7.70;;;4.63;;
48534;SDS011;34323;52.022;5.686;2024-03-22T13:22:18;7.60;;;4.78;;
48534;SDS011;34323;52.022;5.686;2024-03-22T13:24:47;6.70;;;5.03;;
48534;SDS011;34323;52.022;5.686;2024-03-22T13:27:15;9.63;;;5.40;;
48534;SDS011;34323;52.022;5.686;2024-03-22T13:29:41;7.47;;;4.63;;
48534;SDS011;34323;52.022;5.686;2024-03-22T13:32:07;11.38;;;5.30;;
48534;SDS011;34323;52.022;5.686;2024-03-22T13:34:34;10.88;;;5.60;;
48534;SDS011;34323;52.022;5.686;2024-03-22T13:37:00;10.48;;;6.68;;
48534;SDS011;34323;52.022;5.686;2024-03-22T13:39:27;11.98;;;6.28;;
48534;SDS011;34323;52.022;5.686;2024-03-22T13:41:54;13.80;;;6.32;;
48534;SDS011;34323;52.022;5.686;2024-03-22T13:44:21;11.98;;;7.15;;
48534;SDS011;34323;52.022;5.686;2024-03-22T13:46:48;12.65;;;6.55;;
48534;SDS011;34323;52.022;5.686;2024-03-22T13:49:16;13.43;;;7.70;;
48534;SDS011;34323;52.022;5.686;2024-03-22T13:51:43;10.68;;;7.13;;
48534;SDS011;34323;52.022;5.686;2024-03-22T13:54:09;12.00;;;7.15;;
48534;SDS011;34323;52.022;5.686;2024-03-22T13:56:37;24.77;;;5.55;;
48534;SDS011;34323;52.022;5.686;2024-03-22T13:59:06;10.70;;;6.00;;
48534;SDS011;34323;52.022;5.686;2024-03-22T14:01:34;14.15;;;6.70;;
48534;SDS011;34323;52.022;5.686;2024-03-22T14:04:00;14.23;;;5.25;;
48534;SDS011;34323;52.022;5.686;2024-03-22T14:06:26;12.85;;;6.07;;
48534;SDS011;34323;52.022;5.686;2024-03-22T14:08:52;14.35;;;5.82;;
48534;SDS011;34323;52.022;5.686;2024-03-22T14:11:25;17.15;;;7.18;;
48534;SDS011;34323;52.022;5.686;2024-03-22T14:13:51;13.07;;;6.82;;
48534;SDS011;34323;52.022;5.686;2024-03-22T14:16:17;15.75;;;5.75;;
48534;SDS011;34323;52.022;5.686;2024-03-22T14:18:43;20.38;;;8.65;;
48534;SDS011;34323;52.022;5.686;2024-03-22T14:21:08;12.57;;;5.55;;
48534;SDS011;34323;52.022;5.686;2024-03-22T14:23:34;13.70;;;5.90;;